Terminal Aerodrome Forecast
Issued by NWS

Home | Current Version | Previous Version | Text Only | Print | Product List | Glossary On
Versions: 1 2 3 4 5 6 7 8 9 10 11 12 13 14 15 16 17 18
141
FTUS45 KFGZ 300531
TAFGCN
TAF
KGCN 300531Z 3006/3106 VRB05KT P6SM SCT110 SCT200
     FM301800 24010KT P6SM FEW060 SCT090 BKN110
      TEMPO 3021/3101 VRB10G20KT -TSRA BKN060CB
     FM310100 VRB10G20KT P6SM -SHRA FEW060 BKN090
     FM310400 VRB05KT P6SM BKN090=

USA.gov is the U.S. government's official web portal to all federal, state and local government web resources and services.